createdAt,value
2019-04-05T00:00:35.714Z,80.65
2019-04-05T00:05:38.500Z,80.81
2019-04-05T00:10:41.195Z,80.65
2019-04-05T00:15:45.113Z,80.87
2019-04-05T00:20:47.798Z,80.72
2019-04-05T00:25:50.517Z,80.54
2019-04-05T00:30:53.302Z,80.80
2019-04-05T00:35:55.987Z,80.72
2019-04-05T00:40:58.683Z,80.44
2019-04-05T00:46:01.385Z,80.62
2019-04-05T00:51:04.185Z,80.49
2019-04-05T00:56:06.892Z,80.04
2019-04-05T01:01:09.569Z,80.43
2019-04-05T01:06:13.555Z,80.50
2019-04-05T01:11:16.508Z,80.60
2019-04-05T01:16:19.281Z,80.32
2019-04-05T01:21:24.372Z,80.16
2019-04-05T01:26:27.963Z,80.35
2019-04-05T01:31:30.637Z,80.46
2019-04-05T01:36:33.319Z,80.43
2019-04-05T01:41:36.316Z,80.25
2019-04-05T01:46:39.594Z,80.09
2019-04-05T01:51:42.857Z,80.28
2019-04-05T01:56:45.542Z,80.27
2019-04-05T02:01:48.626Z,80.32
2019-04-05T02:06:51.411Z,80.40
2019-04-05T02:11:54.305Z,80.33
2019-04-05T02:16:56.988Z,80.59
2019-04-05T02:21:59.700Z,81.15
2019-04-05T02:27:02.380Z,80.78
2019-04-05T02:32:05.070Z,80.59
2019-04-05T02:37:07.751Z,80.35
2019-04-05T02:42:11.765Z,80.53
2019-04-05T02:47:14.760Z,80.56
2019-04-05T02:52:20.457Z,80.51
2019-04-05T02:57:24.651Z,80.67
2019-04-05T03:02:28.754Z,81.38
2019-04-05T03:07:31.429Z,82.21
2019-04-05T03:12:35.241Z,82.27
2019-04-05T03:17:38.332Z,82.44
2019-04-05T03:22:41.025Z,82.38
2019-04-05T03:27:44.315Z,82.70
2019-04-05T03:32:47.741Z,82.38
2019-04-05T03:37:51.015Z,82.29
2019-04-05T03:42:53.807Z,82.30
2019-04-05T03:47:58.233Z,82.59
2019-04-05T03:53:00.932Z,82.27
2019-04-05T03:58:04.011Z,82.58
2019-04-05T04:03:06.798Z,82.70
2019-04-05T04:08:10.084Z,83.38
2019-04-05T04:13:12.789Z,83.14
2019-04-05T04:18:15.958Z,83.33
2019-04-05T04:23:22.447Z,83.41
2019-04-05T04:28:25.647Z,83.09
2019-04-05T04:33:28.899Z,83.58
2019-04-05T04:38:32.011Z,83.37
2019-04-05T04:43:35.381Z,83.42
2019-04-05T04:48:39.258Z,83.39
2019-04-05T04:53:42.475Z,83.03
2019-04-05T04:58:46.386Z,82.91
2019-04-05T05:03:49.586Z,82.94
2019-04-05T05:08:52.691Z,82.56
2019-04-05T05:13:55.582Z,82.19
2019-04-05T05:18:59.021Z,81.89
2019-04-05T05:24:01.718Z,81.59
2019-04-05T05:29:04.828Z,81.86
2019-04-05T05:34:07.925Z,81.60
2019-04-05T05:39:10.716Z,81.93
2019-04-05T05:44:13.434Z,81.55
2019-04-05T05:49:16.155Z,81.41
2019-04-05T05:54:18.849Z,81.19
2019-04-05T05:59:21.596Z,80.90
2019-04-05T06:04:24.299Z,80.63
2019-04-05T06:09:26.985Z,80.40
2019-04-05T06:14:29.670Z,80.29
2019-04-05T06:19:32.386Z,80.16
2019-04-05T06:24:35.094Z,79.81
2019-04-05T06:29:37.811Z,79.72
2019-04-05T06:34:40.512Z,79.30
2019-04-05T06:39:43.277Z,78.90
2019-04-05T06:44:45.955Z,79.11
2019-04-05T06:49:48.664Z,78.58
2019-04-05T06:54:51.369Z,78.20
2019-04-05T06:59:54.082Z,78.05
2019-04-05T07:04:56.897Z,78.15
2019-04-05T07:09:59.590Z,77.87
2019-04-05T07:15:02.344Z,77.86
2019-04-05T07:20:05.207Z,77.65
2019-04-05T07:25:07.892Z,77.80
2019-04-05T07:30:11.204Z,77.57
2019-04-05T07:36:12.333Z,77.59
2019-04-05T07:41:15.043Z,77.50
2019-04-05T07:46:17.733Z,78.01
2019-04-05T07:51:22.663Z,77.71
2019-04-05T07:56:25.341Z,77.76
2019-04-05T08:01:28.040Z,78.17
2019-04-05T08:06:33.350Z,78.58
2019-04-05T08:11:37.765Z,79.29
2019-04-05T08:16:40.622Z,79.71
2019-04-05T08:21:43.318Z,80.10
2019-04-05T08:26:46.027Z,80.08
2019-04-05T08:31:48.738Z,80.15
2019-04-05T08:36:51.438Z,79.96
2019-04-05T08:41:54.135Z,80.00
2019-04-05T08:46:56.831Z,80.01
2019-04-05T08:51:59.529Z,79.91
2019-04-05T08:57:02.225Z,79.34
2019-04-05T09:02:04.927Z,79.16
2019-04-05T09:07:07.629Z,78.39
2019-04-05T09:12:10.362Z,77.71
2019-04-05T09:17:13.064Z,77.51
2019-04-05T09:22:15.780Z,76.65
2019-04-05T09:27:18.485Z,77.04
2019-04-05T09:32:21.190Z,76.72
2019-04-05T09:37:23.884Z,76.72
2019-04-05T09:42:26.582Z,76.62
2019-04-05T09:47:29.280Z,76.85
2019-04-05T09:52:31.973Z,76.94
2019-04-05T09:57:34.672Z,76.72
2019-04-05T10:02:37.375Z,76.49
2019-04-05T10:07:53.885Z,76.58
2019-04-05T10:12:44.758Z,76.51
2019-04-05T10:17:47.440Z,76.83
2019-04-05T10:22:50.137Z,76.75
2019-04-05T10:27:52.842Z,76.30
2019-04-05T10:32:55.521Z,75.93
2019-04-05T10:37:58.577Z,75.59
2019-04-05T10:43:01.418Z,75.74
2019-04-05T10:48:04.124Z,76.12
2019-04-05T10:53:06.965Z,75.94
2019-04-05T10:58:09.837Z,75.73
2019-04-05T11:03:12.538Z,75.75
2019-04-05T11:08:15.238Z,75.83
2019-04-05T11:13:17.934Z,75.50
2019-04-05T11:18:20.630Z,75.33
2019-04-05T11:23:23.318Z,75.69
2019-04-05T11:28:26.010Z,76.46
2019-04-05T11:33:28.843Z,76.42
2019-04-05T11:38:31.534Z,76.48
2019-04-05T11:43:35.136Z,76.64
2019-04-05T11:48:41.095Z,76.28
2019-04-05T11:53:42.762Z,76.23
2019-04-05T11:58:48.792Z,76.52
2019-04-05T12:03:51.750Z,76.37
2019-04-05T12:08:54.441Z,76.14
2019-04-05T12:13:58.735Z,75.96
2019-04-05T12:19:04.490Z,76.08
2019-04-05T12:24:06.038Z,76.19
2019-04-05T12:29:08.814Z,76.05
2019-04-05T12:34:11.511Z,75.95
2019-04-05T12:39:14.207Z,75.47
2019-04-05T12:44:16.894Z,75.02
2019-04-05T12:49:19.698Z,74.92
2019-04-05T12:54:22.407Z,74.89
2019-04-05T12:59:25.928Z,74.72
2019-04-05T13:04:28.803Z,73.92
2019-04-05T13:09:31.499Z,73.39
2019-04-05T13:14:34.309Z,73.35
2019-04-05T13:19:37.007Z,73.46
2019-04-05T13:24:40.390Z,73.49
2019-04-05T13:29:43.310Z,73.11
2019-04-05T13:34:46.007Z,73.48
2019-04-05T13:39:48.697Z,74.12
2019-04-05T13:44:51.391Z,74.43
2019-04-05T13:49:54.093Z,74.65
2019-04-05T13:54:56.789Z,75.12
2019-04-05T13:59:59.502Z,75.41
2019-04-05T14:05:02.204Z,75.24
2019-04-05T14:10:05.747Z,75.40
2019-04-05T14:15:11.240Z,75.75
2019-04-05T14:20:14.140Z,76.15
2019-04-05T14:25:16.939Z,76.23
2019-04-05T14:30:19.643Z,75.79
2019-04-05T14:35:24.517Z,75.72
2019-04-05T14:40:28.874Z,75.14
2019-04-05T14:45:31.515Z,75.30
2019-04-05T14:50:34.211Z,75.55
2019-04-05T14:55:36.905Z,75.31
2019-04-05T15:00:39.619Z,75.59
2019-04-05T15:05:42.410Z,76.20
2019-04-05T15:10:45.106Z,76.17
2019-04-05T15:15:47.798Z,76.51
2019-04-05T15:20:50.486Z,76.61
2019-04-05T15:25:53.220Z,76.83
2019-04-05T15:30:56.593Z,76.81
2019-04-05T15:36:02.952Z,76.89
2019-04-05T15:41:04.029Z,77.15
2019-04-05T15:46:06.747Z,77.25
2019-04-05T15:51:09.762Z,77.33
2019-04-05T15:56:12.562Z,77.35
2019-04-05T16:01:15.830Z,77.13
2019-04-05T16:06:18.520Z,77.70
2019-04-05T16:11:21.233Z,77.58
2019-04-05T16:16:23.935Z,77.85
2019-04-05T16:21:26.640Z,78.11
2019-04-05T16:26:29.387Z,78.49
2019-04-05T16:31:32.087Z,77.90
2019-04-05T16:36:34.874Z,78.10
2019-04-05T16:41:37.565Z,78.01
2019-04-05T16:46:40.262Z,77.97
2019-04-05T16:51:42.972Z,77.91
2019-04-05T16:56:45.661Z,78.24
2019-04-05T17:01:48.487Z,78.61
2019-04-05T17:06:51.176Z,78.92
2019-04-05T17:11:53.904Z,79.21
2019-04-05T17:16:56.623Z,79.57
2019-04-05T17:21:59.322Z,79.76
2019-04-05T17:27:02.054Z,80.18
2019-04-05T17:32:04.742Z,81.15
2019-04-05T17:37:07.441Z,81.60
2019-04-05T17:42:10.131Z,82.01
2019-04-05T17:47:12.819Z,82.30
2019-04-05T17:52:15.912Z,82.42
2019-04-05T17:57:18.909Z,83.72
2019-04-05T18:02:21.608Z,83.72
2019-04-05T18:07:24.313Z,83.77
2019-04-05T18:12:27.021Z,83.41
2019-04-05T18:17:29.738Z,83.76
2019-04-05T18:22:32.423Z,83.70
2019-04-05T18:27:35.124Z,83.79
2019-04-05T18:32:37.836Z,83.95
2019-04-05T18:37:40.541Z,83.86
2019-04-05T18:42:43.261Z,83.49
2019-04-05T18:47:45.964Z,83.12
2019-04-05T18:52:48.663Z,83.00
2019-04-05T18:57:51.367Z,82.69
2019-04-05T19:02:54.094Z,82.33
2019-04-05T19:07:56.872Z,81.98
2019-04-05T19:13:00.475Z,81.94
2019-04-05T19:18:03.338Z,82.38
2019-04-05T19:23:06.137Z,82.30
2019-04-05T19:28:09.695Z,82.25
2019-04-05T19:53:29.169Z,82.64
2019-04-05T19:58:31.862Z,82.43
2019-04-05T20:03:34.588Z,82.93
2019-04-05T20:08:37.358Z,82.81
2019-04-05T20:13:40.105Z,82.86
2019-04-05T20:18:43.002Z,82.75
2019-04-05T20:23:47.714Z,82.43
2019-04-05T20:28:50.300Z,83.09
2019-04-05T20:33:53.129Z,82.97
2019-04-05T20:38:55.830Z,83.09
2019-04-05T20:43:58.531Z,82.63
2019-04-05T20:49:01.223Z,82.51
2019-04-05T20:54:04.592Z,82.35
2019-04-05T20:59:07.484Z,82.72
2019-04-05T21:04:10.177Z,82.76
2019-04-05T21:09:12.881Z,82.71
2019-04-05T21:14:15.573Z,83.04
2019-04-05T21:19:18.269Z,83.84
2019-04-05T21:24:21.191Z,83.35
2019-04-05T21:29:23.876Z,84.18
2019-04-05T21:34:26.697Z,83.99
2019-04-05T21:39:29.587Z,84.49
2019-04-05T21:44:32.261Z,84.50
2019-04-05T21:49:34.962Z,85.90
2019-04-05T21:54:47.131Z,85.18
2019-04-05T21:59:42.257Z,85.28
2019-04-05T22:04:44.965Z,86.15
2019-04-05T22:09:47.665Z,86.56
2019-04-05T22:14:50.361Z,86.85
2019-04-05T22:19:53.067Z,86.99
2019-04-05T22:24:59.480Z,87.12
2019-04-05T22:30:00.368Z,86.79
2019-04-05T22:35:03.245Z,87.90
2019-04-05T22:40:06.436Z,87.57
2019-04-05T22:45:09.943Z,87.00
2019-04-05T22:50:13.137Z,86.98
2019-04-05T22:55:15.833Z,87.36
2019-04-05T23:00:18.567Z,87.67
2019-04-05T23:05:21.260Z,88.41
2019-04-05T23:10:23.952Z,87.92
2019-04-05T23:15:26.640Z,87.42
2019-04-05T23:20:29.342Z,87.26
2019-04-05T23:25:32.059Z,87.25
2019-04-05T23:30:34.754Z,88.16
2019-04-05T23:35:37.444Z,87.41
2019-04-05T23:40:40.165Z,86.83
2019-04-05T23:45:42.857Z,86.62
2019-04-05T23:50:45.548Z,86.35
2019-04-05T23:55:48.244Z,86.07
